Accueil
METAR-TAF:

METAR-TAF

Aéroports :

Aéroport international de Xi'an Xianyang

Xi'an, Chine

latitude: 34-26N, longitude: 108-45E, altitude: 479 m

Observation

Le bulletin a été fait il y a 1 heure et 8 minutes, à 12:00 UTC
Vent 4 kt de ouest/sud-ouest
Température 3°C
Humidité 60%
Pression 1017 hPa
Visibilité: 4000 m
Ciel couvert à une hauteur de 7000 ft
brume sèche

METAR: ZLXY 231200Z 25002MPS 4000 HZ OVC070 03/M04 Q1017 NOSIG

Heure: 21:08 (13:08 UTC)

Prévision

Le bulletin a été fait il y a 3 heures et 59 minutes, à 09:09 UTC
Prévision valable du 23 à 12 UTC au 24 à 12 UTC
Vent 8 kt de est/nord-est
Visibilité: 3000 m
brume sèche
Evoluant progressivement
du 24 à 08 UTC au 24 à 09 UTC
Visibilité: 2800 m
pluie faible

TAF: ZLXY 230909Z 2312/2412 06004MPS 3000 HZ NSC TX07/2407Z TNM01/2323Z BECMG 2408/2409 2800 -RA

Observations et prévisions météorologiques de plus de 4000 aéroports (messages METAR et TAF).

Les stations disponibles sont représentées par des disques jaunes et rouges sur la carte.

Passer la souris dessus pour voir le nom de la station.

Cliquer dessus pour voir les observations et prévisions météorologiques.

Pour changer de carte: cliquez sur les boutons verts avec une croix noire pour zoomer, sur le bouton vert avec un tiret pour effectuer un zoom arrière, ou sur les flèches vertes pour les cartes adjacentes.


METAR-TAF: